Time;durP1;ratioP1;P1;durP2;ratioP2;P2;SDS_P1;SDS_P2;PMS_P1;PMS_P2;Temp;Humidity;BMP_temperature;BMP_pressure;BME280_temperature;BME280_humidity;BME280_pressure;Samples;Min_cycle;Max_cycle;Signal;HPM_P1;HPM_P2
2024/04/15 00:04:49;;;;;;;0.70;0.70;;;17.80;94.60;;;;;;11325369;26;20264;-78
2024/04/15 00:09:53;;;;;;;0.80;0.80;;;17.80;94.70;;;;;;11329074;26;20259;-78
2024/04/15 00:14:57;;;;;;;0.80;0.80;;;17.80;94.70;;;;;;11342496;26;20237;-78
2024/04/15 00:20:04;;;;;;;0.80;0.80;;;17.80;94.70;;;;;;11318961;26;20236;-77
2024/04/15 00:25:08;;;;;;;0.70;0.70;;;17.70;94.70;;;;;;11338139;26;20717;-78
2024/04/15 00:30:12;;;;;;;0.70;0.70;;;17.80;94.90;;;;;;11326814;26;20618;-77
2024/04/15 00:35:19;;;;;;;0.80;0.80;;;17.90;94.60;;;;;;11352671;26;20240;-77
2024/04/15 00:40:24;;;;;;;0.70;0.70;;;17.90;93.80;;;;;;11328400;26;20726;-78
2024/04/15 00:45:31;;;;;;;0.80;0.80;;;18.00;93.30;;;;;;11288495;26;20241;-77
2024/04/15 00:50:40;;;;;;;0.80;0.80;;;18.00;93.30;;;;;;11337918;26;20325;-78
2024/04/15 00:55:49;;;;;;;0.80;0.80;;;18.10;93.40;;;;;;11337848;26;20614;-78
2024/04/15 01:00:55;;;;;;;0.87;0.87;;;18.10;93.50;;;;;;11343614;26;20260;-78
2024/04/15 01:06:01;;;;;;;0.80;0.80;;;18.10;93.30;;;;;;11326979;26;20273;-78
2024/04/15 01:11:06;;;;;;;0.80;0.80;;;18.10;94.10;;;;;;11333585;26;20263;-78
2024/04/15 01:16:10;;;;;;;0.80;0.80;;;18.10;95.00;;;;;;11300296;26;20333;-78
2024/04/15 01:21:17;;;;;;;0.80;0.80;;;18.10;95.40;;;;;;11323205;26;20316;-77
2024/04/15 01:26:23;;;;;;;0.80;0.80;;;18.10;95.30;;;;;;11321573;26;20639;-77
2024/04/15 01:31:27;;;;;;;0.80;0.80;;;18.00;95.50;;;;;;11334611;26;20747;-77
2024/04/15 01:36:31;;;;;;;0.70;0.70;;;18.00;95.80;;;;;;11338895;26;20271;-78
2024/04/15 01:41:38;;;;;;;0.70;0.70;;;17.90;95.60;;;;;;11341162;26;20240;-78
2024/04/15 01:46:42;;;;;;;0.70;0.70;;;17.90;95.80;;;;;;11355197;26;20241;-77
2024/04/15 01:51:46;;;;;;;0.80;0.80;;;17.80;95.70;;;;;;11345855;26;20344;-78
2024/04/15 01:56:52;;;;;;;1.10;1.10;;;17.70;95.70;;;;;;11320771;26;20617;-77
2024/04/15 02:01:56;;;;;;;1.20;1.20;;;17.60;95.70;;;;;;11347915;26;20633;-77
2024/04/15 02:07:00;;;;;;;1.30;1.30;;;17.60;95.70;;;;;;11340773;26;20272;-77
2024/04/15 02:12:08;;;;;;;1.20;1.20;;;17.50;95.20;;;;;;11308110;26;20265;-77
2024/04/15 02:17:12;;;;;;;1.20;1.20;;;17.50;94.80;;;;;;11323848;26;20244;-78
2024/04/15 02:22:16;;;;;;;1.20;1.20;;;17.50;94.60;;;;;;11334792;26;20240;-77
2024/04/15 02:27:22;;;;;;;1.20;1.20;;;17.60;94.40;;;;;;11314795;26;20236;-78
2024/04/15 02:32:26;;;;;;;1.13;1.13;;;17.60;94.00;;;;;;11337812;26;20333;-77
2024/04/15 02:37:30;;;;;;;0.80;0.80;;;17.60;93.30;;;;;;11350084;26;20244;-78
2024/04/15 02:42:37;;;;;;;1.20;1.20;;;17.60;92.70;;;;;;11342530;26;20613;-77
2024/04/15 02:47:42;;;;;;;1.30;1.30;;;17.50;92.30;;;;;;11349791;26;20272;-77
2024/04/15 02:52:46;;;;;;;1.10;1.10;;;17.60;91.70;;;;;;11341285;26;20276;-78
2024/04/15 02:57:52;;;;;;;1.20;1.20;;;17.50;92.10;;;;;;11289413;26;20236;-78
2024/04/15 03:02:56;;;;;;;1.20;1.20;;;17.50;92.20;;;;;;11293433;26;20236;-77
2024/04/15 03:08:00;;;;;;;1.50;1.50;;;17.60;91.90;;;;;;11333947;26;20714;-78
2024/04/15 03:13:07;;;;;;;1.20;1.20;;;17.50;91.90;;;;;;11323816;26;20241;-78
2024/04/15 03:18:11;;;;;;;1.33;1.33;;;17.50;91.60;;;;;;11321839;20;20782;-78
2024/04/15 03:23:15;;;;;;;1.40;1.40;;;17.50;91.80;;;;;;11279558;26;20325;-78
2024/04/15 03:28:22;;;;;;;1.10;1.10;;;17.50;91.80;;;;;;11225502;26;20270;-78
2024/04/15 03:33:27;;;;;;;1.20;1.20;;;17.50;92.10;;;;;;11205790;26;20307;-78
2024/04/15 03:38:31;;;;;;;1.33;1.33;;;17.50;91.90;;;;;;11232977;26;20327;-78
2024/04/15 03:43:38;;;;;;;1.17;1.17;;;17.50;91.90;;;;;;11202050;26;20744;-78
2024/04/15 03:48:42;;;;;;;1.10;1.10;;;17.40;91.60;;;;;;11234279;26;20873;-78
2024/04/15 03:53:46;;;;;;;1.20;1.20;;;17.40;91.90;;;;;;11216305;26;20230;-79
2024/04/15 03:58:54;;;;;;;1.30;1.30;;;17.40;91.50;;;;;;11245209;26;20246;-77
2024/04/15 04:03:58;;;;;;;1.20;1.20;;;17.30;92.10;;;;;;11239160;26;20258;-77
2024/04/15 04:09:02;;;;;;;1.30;1.30;;;17.30;92.10;;;;;;11227382;26;20230;-78
2024/04/15 04:14:09;;;;;;;1.30;1.30;;;17.30;92.30;;;;;;11231015;26;20264;-79
2024/04/15 04:19:14;;;;;;;1.00;1.00;;;17.30;92.30;;;;;;11203891;26;20247;-79
2024/04/15 04:24:18;;;;;;;1.47;1.47;;;17.30;92.40;;;;;;11222289;26;20241;-78
2024/04/15 04:29:24;;;;;;;1.60;1.60;;;17.30;92.60;;;;;;11244500;26;20235;-79
2024/04/15 04:34:29;;;;;;;1.20;1.20;;;17.30;92.10;;;;;;11236639;26;20260;-78
2024/04/15 04:39:33;;;;;;;1.30;1.30;;;17.20;91.80;;;;;;11230535;26;20345;-78
2024/04/15 04:44:39;;;;;;;1.13;1.13;;;17.20;91.90;;;;;;11205048;26;20270;-79
2024/04/15 04:49:43;;;;;;;0.93;0.93;;;17.20;91.90;;;;;;11198852;26;20717;-76
2024/04/15 04:54:51;;;;;;;1.00;1.00;;;17.20;91.90;;;;;;11229972;26;20238;-78
2024/04/15 04:59:58;;;;;;;1.03;1.03;;;17.10;92.00;;;;;;11193621;26;20331;-77
2024/04/15 05:05:02;;;;;;;1.10;1.10;;;17.10;92.30;;;;;;11254962;26;20638;-78
2024/04/15 05:10:06;;;;;;;0.90;0.90;;;17.10;91.90;;;;;;11256168;26;20231;-78
2024/04/15 05:15:13;;;;;;;0.87;0.87;;;17.10;91.80;;;;;;11232164;26;20267;-79
2024/04/15 05:20:17;;;;;;;1.00;1.00;;;17.10;91.00;;;;;;11238944;26;20231;-78
2024/04/15 05:25:21;;;;;;;1.10;1.10;;;17.10;91.30;;;;;;11236628;26;20284;-78
2024/04/15 05:30:27;;;;;;;1.00;1.00;;;17.10;91.80;;;;;;11211053;26;20335;-77
2024/04/15 05:35:32;;;;;;;0.93;0.93;;;17.10;92.40;;;;;;11253665;26;20246;-77
2024/04/15 05:40:36;;;;;;;0.90;0.90;;;17.10;92.10;;;;;;11240322;26;20575;-77
2024/04/15 05:45:43;;;;;;;0.70;0.70;;;17.10;91.80;;;;;;11231732;26;20231;-78
2024/04/15 05:50:47;;;;;;;0.90;0.90;;;17.10;91.50;;;;;;11208771;26;20262;-78
2024/04/15 05:55:51;;;;;;;0.80;0.80;;;17.10;90.90;;;;;;11213216;26;20242;-77
2024/04/15 06:00:58;;;;;;;0.90;0.90;;;17.10;91.10;;;;;;11209679;26;20884;-77
2024/04/15 06:06:02;;;;;;;1.00;1.00;;;17.10;90.90;;;;;;11247229;26;20337;-79
2024/04/15 06:11:06;;;;;;;0.70;0.70;;;17.00;90.90;;;;;;11242855;26;20553;-77
2024/04/15 06:16:13;;;;;;;0.80;0.80;;;17.00;89.50;;;;;;11194562;26;20273;-79
2024/04/15 06:21:20;;;;;;;0.57;0.57;;;17.00;88.80;;;;;;11189577;26;20265;-80
2024/04/15 06:26:24;;;;;;;1.00;1.00;;;17.00;89.80;;;;;;11207389;26;20227;-78
2024/04/15 06:31:32;;;;;;;0.90;0.90;;;16.90;87.30;;;;;;11205500;26;20331;-78
2024/04/15 06:36:36;;;;;;;0.40;0.40;;;16.90;88.60;;;;;;11204832;26;20317;-78
2024/04/15 06:41:40;;;;;;;0.70;0.70;;;16.90;89.20;;;;;;11237748;26;20335;-77
2024/04/15 06:46:47;;;;;;;1.10;1.10;;;16.90;88.70;;;;;;11213501;26;20243;-78
2024/04/15 06:51:51;;;;;;;1.00;1.00;;;16.90;88.80;;;;;;11236129;26;20258;-79
2024/04/15 06:56:55;;;;;;;1.10;1.10;;;16.80;89.00;;;;;;11228315;26;20265;-78
2024/04/15 07:02:02;;;;;;;0.90;0.90;;;16.90;89.10;;;;;;11229847;26;20227;-77
2024/04/15 07:07:06;;;;;;;1.00;1.00;;;16.90;88.70;;;;;;11200624;26;20235;-78
2024/04/15 07:12:10;;;;;;;0.80;0.80;;;16.80;88.60;;;;;;11213877;26;20640;-78
2024/04/15 07:17:17;;;;;;;0.70;0.70;;;16.80;88.70;;;;;;11231118;26;20260;-79
2024/04/15 07:22:21;;;;;;;0.90;0.90;;;16.80;89.00;;;;;;11230779;26;20723;-79
2024/04/15 07:27:25;;;;;;;0.80;0.80;;;16.80;88.90;;;;;;11220295;26;20231;-78
2024/04/15 07:32:33;;;;;;;0.50;0.50;;;16.80;88.90;;;;;;11239769;26;20659;-78
2024/04/15 07:37:37;;;;;;;0.50;0.50;;;16.80;88.90;;;;;;11219691;26;20313;-78
2024/04/15 07:42:41;;;;;;;0.50;0.50;;;17.00;89.00;;;;;;11218542;26;20264;-79
2024/04/15 07:47:49;;;;;;;0.50;0.50;;;17.10;88.20;;;;;;11232140;26;20242;-77
2024/04/15 07:52:53;;;;;;;0.60;0.60;;;17.20;88.20;;;;;;11226784;26;20338;-78
2024/04/15 07:57:58;;;;;;;0.40;0.40;;;17.30;87.40;;;;;;11236097;26;20276;-79
2024/04/15 08:03:05;;;;;;;0.50;0.50;;;17.30;88.00;;;;;;11210756;26;20716;-79
2024/04/15 08:08:10;;;;;;;0.50;0.50;;;17.30;88.30;;;;;;11245555;26;20341;-78
2024/04/15 08:13:14;;;;;;;0.60;0.60;;;17.30;89.60;;;;;;11212818;26;20267;-79
2024/04/15 08:18:21;;;;;;;0.50;0.50;;;17.30;90.50;;;;;;11232071;26;20248;-79
2024/04/15 08:23:25;;;;;;;0.50;0.50;;;17.30;90.90;;;;;;11209041;26;20238;-78
2024/04/15 08:28:29;;;;;;;0.50;0.50;;;17.40;91.30;;;;;;11210105;26;20338;-77
2024/04/15 08:33:36;;;;;;;0.50;0.50;;;17.30;91.50;;;;;;11226473;26;20380;-78
2024/04/15 08:38:44;;;;;;;0.30;0.30;;;17.30;91.50;;;;;;11206349;26;20258;-78
2024/04/15 08:43:49;;;;;;;0.50;0.50;;;17.30;92.00;;;;;;11189342;26;20243;-78
2024/04/15 08:48:56;;;;;;;0.50;0.50;;;17.20;92.30;;;;;;11193865;26;21309;-77
2024/04/15 08:54:00;;;;;;;0.60;0.60;;;17.30;92.90;;;;;;11225138;26;20323;-76
2024/04/15 08:59:05;;;;;;;0.60;0.60;;;17.40;92.70;;;;;;11213449;26;20231;-77
2024/04/15 09:04:12;;;;;;;0.40;0.40;;;17.60;93.00;;;;;;11238440;26;20228;-78
2024/04/15 09:09:18;;;;;;;0.40;0.40;;;17.90;92.30;;;;;;11228117;26;20267;-78
2024/04/15 09:14:22;;;;;;;0.40;0.40;;;18.00;91.50;;;;;;11243650;26;20296;-80
2024/04/15 09:19:29;;;;;;;0.70;0.70;;;18.10;91.70;;;;;;11252993;20;20770;-78
2024/04/15 09:24:33;;;;;;;0.43;0.43;;;18.20;92.00;;;;;;11186647;26;20231;-78
2024/04/15 09:29:38;;;;;;;0.50;0.50;;;18.20;91.90;;;;;;11218620;26;20242;-78
2024/04/15 09:34:45;;;;;;;0.50;0.50;;;18.50;92.00;;;;;;11221698;26;20242;-78
2024/04/15 09:39:51;;;;;;;0.50;0.50;;;18.80;91.40;;;;;;11220477;26;20805;-78
2024/04/15 09:44:56;;;;;;;0.57;0.57;;;19.00;91.20;;;;;;11207422;26;20227;-78
2024/04/15 09:50:03;;;;;;;0.50;0.50;;;19.20;90.20;;;;;;11219682;26;20262;-78
2024/04/15 09:55:09;;;;;;;0.50;0.50;;;19.40;90.40;;;;;;11197069;26;21009;-78
2024/04/15 10:00:16;;;;;;;0.30;0.30;;;19.50;89.10;;;;;;11200096;26;20243;-78
2024/04/15 10:05:25;;;;;;;0.50;0.50;;;19.30;88.60;;;;;;11181810;26;20243;-78
2024/04/15 10:10:30;;;;;;;0.50;0.50;;;19.30;86.40;;;;;;11196844;26;20239;-78
2024/04/15 10:15:35;;;;;;;0.40;0.40;;;19.00;88.20;;;;;;11204956;26;20347;-78
2024/04/15 10:20:43;;;;;;;0.60;0.60;;;19.10;88.90;;;;;;11194191;26;20331;-78
2024/04/15 10:25:47;;;;;;;0.60;0.60;;;19.30;87.50;;;;;;11203137;26;20251;-78
2024/04/15 10:30:51;;;;;;;0.50;0.50;;;19.40;86.50;;;;;;11193319;26;20381;-78
2024/04/15 10:35:58;;;;;;;0.40;0.40;;;19.70;87.30;;;;;;11197131;26;20277;-78
2024/04/15 10:41:07;;;;;;;0.50;0.50;;;19.80;84.40;;;;;;11196041;26;20805;-78
2024/04/15 10:46:14;;;;;;;0.43;0.43;;;19.70;84.00;;;;;;11203767;26;20242;-78
2024/04/15 10:51:20;;;;;;;0.40;0.40;;;19.50;84.80;;;;;;11197542;26;20231;-78
2024/04/15 10:56:24;;;;;;;0.37;0.37;;;19.40;83.90;;;;;;11212224;26;20350;-78
2024/04/15 11:01:30;;;;;;;0.40;0.40;;;19.30;85.70;;;;;;11182265;26;20335;-79
2024/04/15 11:06:37;;;;;;;0.40;0.40;;;19.20;85.90;;;;;;11189821;26;20351;-78
2024/04/15 11:11:41;;;;;;;0.40;0.40;;;19.10;85.10;;;;;;11193021;26;20843;-77
2024/04/15 11:16:47;;;;;;;0.40;0.40;;;19.00;86.10;;;;;;11205049;26;20235;-79
2024/04/15 11:22:03;;;;;;;0.40;0.40;;;19.00;87.30;;;;;;11225262;26;20266;-77
2024/04/15 11:27:10;;;;;;;0.40;0.40;;;19.20;87.00;;;;;;11204117;26;20277;-78
2024/04/15 11:32:15;;;;;;;0.50;0.50;;;19.30;86.80;;;;;;11212335;26;20239;-79
2024/04/15 11:37:22;;;;;;;0.40;0.40;;;19.30;85.90;;;;;;11202621;26;20716;-78
2024/04/15 11:42:27;;;;;;;0.40;0.40;;;19.10;85.70;;;;;;11203782;26;20888;-79
2024/04/15 11:47:31;;;;;;;0.50;0.50;;;19.00;86.10;;;;;;11185076;26;20346;-78
2024/04/15 11:52:38;;;;;;;0.40;0.40;;;18.90;86.50;;;;;;11225139;26;20243;-78
2024/04/15 11:57:42;;;;;;;0.50;0.50;;;18.60;90.10;;;;;;11174015;26;20506;-80
2024/04/15 12:02:49;;;;;;;0.50;0.50;;;18.30;91.40;;;;;;11170814;26;20323;-79
2024/04/15 12:07:56;;;;;;;1.50;1.50;;;18.00;91.40;;;;;;11166788;26;20238;-79
2024/04/15 12:13:00;;;;;;;1.40;1.40;;;17.80;93.10;;;;;;11182204;26;20721;-79
2024/04/15 12:18:05;;;;;;;1.30;1.30;;;17.50;94.10;;;;;;11200768;26;20243;-78
2024/04/15 12:23:11;;;;;;;0.80;0.80;;;17.20;94.90;;;;;;11222429;26;20259;-78
2024/04/15 12:28:16;;;;;;;0.50;0.50;;;17.00;95.50;;;;;;11185809;26;20409;-78
2024/04/15 12:33:20;;;;;;;0.57;0.57;;;17.10;95.90;;;;;;11181805;26;20240;-78
2024/04/15 12:38:26;;;;;;;0.47;0.47;;;17.20;95.80;;;;;;11185926;26;20269;-78
2024/04/15 12:43:31;;;;;;;0.50;0.50;;;17.50;95.40;;;;;;11191373;26;20260;-78
2024/04/15 12:48:35;;;;;;;0.50;0.50;;;17.70;94.80;;;;;;11191560;26;20656;-78
2024/04/15 12:53:41;;;;;;;0.80;0.80;;;17.80;94.50;;;;;;11195475;26;20231;-79
2024/04/15 12:58:46;;;;;;;0.83;0.83;;;17.70;95.10;;;;;;11248184;26;20289;-78
2024/04/15 13:03:50;;;;;;;0.70;0.70;;;17.70;95.70;;;;;;11198695;26;20303;-78
2024/04/15 13:08:57;;;;;;;0.60;0.60;;;17.70;95.60;;;;;;11200408;26;20235;-78
2024/04/15 13:14:01;;;;;;;0.50;0.50;;;18.00;96.00;;;;;;11217874;26;20243;-78
2024/04/15 13:19:05;;;;;;;0.40;0.40;;;18.20;95.60;;;;;;11213480;26;20243;-79
2024/04/15 13:24:12;;;;;;;0.50;0.50;;;18.40;95.40;;;;;;11207501;26;20235;-76
2024/04/15 13:29:16;;;;;;;0.37;0.37;;;18.50;95.10;;;;;;11195210;26;20675;-76
2024/04/15 13:34:20;;;;;;;0.50;0.50;;;18.60;93.90;;;;;;11196372;26;20315;-76
2024/04/15 13:39:27;;;;;;;0.60;0.60;;;18.70;93.80;;;;;;11196629;26;20623;-77
2024/04/15 13:44:31;;;;;;;0.50;0.50;;;18.80;93.20;;;;;;11178383;26;20343;-76
2024/04/15 13:49:35;;;;;;;0.23;0.23;;;18.80;91.10;;;;;;11184298;26;20322;-76
2024/04/15 13:54:43;;;;;;;0.50;0.50;;;18.70;91.10;;;;;;11186948;26;20239;-76
2024/04/15 13:59:47;;;;;;;0.50;0.50;;;18.60;91.20;;;;;;11197224;26;20237;-76
2024/04/15 14:04:51;;;;;;;0.37;0.37;;;18.70;90.40;;;;;;11180445;26;20223;-77
2024/04/15 14:09:58;;;;;;;0.20;0.20;;;18.70;90.70;;;;;;11187713;26;20239;-77
2024/04/15 14:15:03;;;;;;;0.40;0.40;;;18.80;88.20;;;;;;11185937;26;20235;-76
2024/04/15 14:20:08;;;;;;;0.37;0.37;;;18.80;86.90;;;;;;11187805;26;20254;-76
2024/04/15 14:25:15;;;;;;;0.40;0.40;;;18.80;86.50;;;;;;11185767;26;20334;-76
2024/04/15 14:30:19;;;;;;;0.30;0.30;;;18.80;83.30;;;;;;11200686;26;20606;-77
2024/04/15 14:35:23;;;;;;;0.43;0.43;;;18.80;82.00;;;;;;11170860;26;20243;-76
2024/04/15 14:40:30;;;;;;;0.40;0.40;;;18.80;82.10;;;;;;11188200;26;20231;-76
2024/04/15 14:45:35;;;;;;;0.50;0.50;;;18.80;80.90;;;;;;11173093;26;20343;-76
2024/04/15 14:50:39;;;;;;;0.50;0.50;;;18.80;81.50;;;;;;11206429;26;20238;-79
2024/04/15 14:55:46;;;;;;;0.40;0.40;;;18.90;79.60;;;;;;11200309;26;20564;-78
2024/04/15 15:00:50;;;;;;;0.40;0.40;;;19.00;75.80;;;;;;11207351;26;20327;-79
2024/04/15 15:05:54;;;;;;;0.30;0.30;;;19.10;73.20;;;;;;11190987;26;20232;-78
2024/04/15 15:11:02;;;;;;;0.50;0.50;;;19.20;75.00;;;;;;11194220;26;20253;-79
2024/04/15 15:16:07;;;;;;;0.40;0.40;;;19.20;75.70;;;;;;11216414;21;20286;-78
2024/04/15 15:21:12;;;;;;;0.40;0.40;;;19.30;71.90;;;;;;11191317;26;20239;-79
2024/04/15 15:26:18;;;;;;;0.50;0.50;;;19.20;70.10;;;;;;11183888;26;20231;-81
2024/04/15 15:31:22;;;;;;;0.40;0.40;;;19.20;70.70;;;;;;11185856;26;20239;-77
2024/04/15 15:36:27;;;;;;;0.40;0.40;;;19.30;65.70;;;;;;11162023;26;20272;-78
2024/04/15 15:41:34;;;;;;;0.33;0.33;;;19.20;66.20;;;;;;11186627;26;20226;-77
2024/04/15 15:46:38;;;;;;;0.50;0.50;;;19.00;69.20;;;;;;11184927;26;20243;-78
2024/04/15 15:51:43;;;;;;;0.57;0.57;;;18.90;67.80;;;;;;11190665;26;20239;-79
2024/04/15 15:56:49;;;;;;;0.40;0.40;;;18.90;66.90;;;;;;11166304;26;20326;-78
2024/04/15 16:01:53;;;;;;;0.40;0.40;;;18.90;66.70;;;;;;11168320;26;20649;-79
2024/04/15 16:06:57;;;;;;;0.30;0.30;;;18.80;65.90;;;;;;11183911;26;20290;-77
2024/04/15 16:12:04;;;;;;;0.40;0.40;;;18.80;66.60;;;;;;11173903;26;20300;-77
2024/04/15 16:17:08;;;;;;;0.30;0.30;;;18.60;68.60;;;;;;11192602;26;20231;-77
2024/04/15 16:22:12;;;;;;;0.40;0.40;;;18.60;69.20;;;;;;11167623;26;20231;-78
2024/04/15 16:27:19;;;;;;;0.57;0.57;;;18.50;68.80;;;;;;11183434;26;20649;-78
2024/04/15 16:32:23;;;;;;;0.50;0.50;;;18.40;72.00;;;;;;11183516;26;20258;-77
2024/04/15 16:37:27;;;;;;;0.50;0.50;;;18.30;70.70;;;;;;11178295;26;20246;-77
2024/04/15 16:42:33;;;;;;;0.60;0.60;;;18.30;69.70;;;;;;11121742;26;20734;-77
2024/04/15 16:47:37;;;;;;;0.50;0.50;;;18.20;68.60;;;;;;11177321;26;20247;-78
2024/04/15 16:52:41;;;;;;;0.50;0.50;;;18.10;70.20;;;;;;11162727;26;20270;-77
2024/04/15 16:57:48;;;;;;;0.50;0.50;;;18.00;69.90;;;;;;11165202;26;20712;-78
2024/04/15 17:02:52;;;;;;;0.50;0.50;;;18.00;68.90;;;;;;11185161;26;20334;-78
2024/04/15 17:07:56;;;;;;;0.50;0.50;;;18.00;69.60;;;;;;11174204;26;20647;-79
2024/04/15 17:13:03;;;;;;;0.50;0.50;;;17.90;71.00;;;;;;11186192;26;20281;-78
2024/04/15 17:18:09;;;;;;;0.50;0.50;;;17.90;70.20;;;;;;11159468;26;20247;-77
2024/04/15 17:23:13;;;;;;;0.60;0.60;;;17.80;68.60;;;;;;11189326;26;20270;-78
2024/04/15 17:28:20;;;;;;;0.60;0.60;;;17.80;67.60;;;;;;11188302;26;20343;-78
2024/04/15 17:33:24;;;;;;;0.60;0.60;;;17.70;68.60;;;;;;11173978;26;20331;-78
2024/04/15 17:38:28;;;;;;;0.30;0.30;;;17.60;63.80;;;;;;11173081;26;20580;-78
2024/04/15 17:43:37;;;;;;;0.20;0.20;;;17.50;66.00;;;;;;11173721;26;20243;-78
2024/04/15 17:48:41;;;;;;;0.50;0.50;;;17.50;64.70;;;;;;11187008;26;20250;-79
2024/04/15 17:53:46;;;;;;;0.50;0.50;;;17.40;64.80;;;;;;11190190;26;20234;-79
2024/04/15 17:58:53;;;;;;;0.60;0.60;;;17.40;64.20;;;;;;11187767;26;20231;-79
2024/04/15 18:03:57;;;;;;;0.50;0.50;;;17.30;63.90;;;;;;11158107;26;20615;-79
2024/04/15 18:09:01;;;;;;;0.60;0.60;;;17.20;62.80;;;;;;11187863;26;20239;-79
2024/04/15 18:14:09;;;;;;;0.60;0.60;;;17.10;63.80;;;;;;11147222;26;20240;-78
2024/04/15 18:19:13;;;;;;;0.60;0.60;;;17.00;64.00;;;;;;11113706;26;20236;-78
2024/04/15 18:24:17;;;;;;;0.60;0.60;;;16.80;64.70;;;;;;11113833;26;20271;-77
2024/04/15 18:29:24;;;;;;;0.60;0.60;;;16.80;64.10;;;;;;11160887;26;20339;-77
2024/04/15 18:34:28;;;;;;;0.50;0.50;;;16.80;64.00;;;;;;11186406;26;20223;-78
2024/04/15 18:39:32;;;;;;;0.60;0.60;;;16.80;62.80;;;;;;11186976;26;20234;-76
2024/04/15 18:44:41;;;;;;;0.50;0.50;;;16.80;62.10;;;;;;11186625;26;20223;-77
2024/04/15 18:49:45;;;;;;;0.60;0.60;;;16.80;62.50;;;;;;11186256;26;20270;-76
2024/04/15 18:54:49;;;;;;;0.60;0.60;;;16.80;62.50;;;;;;11186689;26;20638;-77
2024/04/15 18:59:55;;;;;;;0.57;0.57;;;16.70;62.50;;;;;;11186544;26;20239;-78
2024/04/15 19:04:59;;;;;;;0.50;0.50;;;16.80;60.30;;;;;;11183652;26;20231;-78
2024/04/15 19:10:03;;;;;;;0.50;0.50;;;16.80;64.80;;;;;;11179529;26;20279;-78
2024/04/15 19:15:11;;;;;;;0.40;0.40;;;16.50;68.50;;;;;;11112538;26;20514;-76
2024/04/15 19:20:15;;;;;;;0.50;0.50;;;16.20;70.80;;;;;;11112306;26;20571;-78
2024/04/15 19:25:19;;;;;;;0.50;0.50;;;15.80;71.10;;;;;;11147850;26;20223;-78
2024/04/15 19:30:26;;;;;;;0.50;0.50;;;15.40;69.20;;;;;;11150751;26;20235;-76
2024/04/15 19:35:31;;;;;;;0.60;0.60;;;15.10;67.80;;;;;;11179220;26;20719;-77
2024/04/15 19:40:35;;;;;;;0.60;0.60;;;14.70;67.60;;;;;;11184916;26;20261;-78
2024/04/15 19:45:42;;;;;;;0.60;0.60;;;14.40;67.70;;;;;;11185370;26;20232;-76
2024/04/15 19:50:46;;;;;;;0.60;0.60;;;14.00;68.90;;;;;;11145640;26;20769;-77
2024/04/15 19:55:50;;;;;;;0.60;0.60;;;13.80;69.50;;;;;;11177134;26;20626;-75
2024/04/15 20:00:57;;;;;;;0.60;0.60;;;13.60;70.70;;;;;;11149483;26;20758;-75
2024/04/15 20:06:01;;;;;;;0.60;0.60;;;13.40;72.10;;;;;;11110108;26;20240;-77
2024/04/15 20:11:06;;;;;;;0.53;0.53;;;13.10;73.40;;;;;;11133996;26;20576;-78
2024/04/15 20:16:13;;;;;;;0.57;0.57;;;13.00;74.80;;;;;;11109542;26;20267;-76
2024/04/15 20:21:17;;;;;;;0.70;0.70;;;12.80;75.70;;;;;;11129601;26;20239;-75
2024/04/15 20:26:21;;;;;;;0.50;0.50;;;12.60;76.90;;;;;;11178664;26;20720;-76
2024/04/15 20:31:28;;;;;;;0.50;0.50;;;12.60;77.50;;;;;;11110079;26;20224;-78
2024/04/15 20:36:32;;;;;;;0.50;0.50;;;12.40;78.90;;;;;;11112058;26;20240;-78
2024/04/15 20:41:36;;;;;;;0.90;0.90;;;12.30;81.40;;;;;;11134236;26;20759;-78
2024/04/15 20:46:43;;;;;;;1.00;1.00;;;12.10;83.50;;;;;;11157488;26;20824;-79
2024/04/15 20:51:47;;;;;;;0.60;0.60;;;11.80;85.00;;;;;;11146689;26;20262;-78
2024/04/15 20:56:51;;;;;;;0.80;0.80;;;11.50;85.10;;;;;;11174889;26;20266;-79
2024/04/15 21:01:58;;;;;;;1.10;1.10;;;11.20;86.30;;;;;;11125114;26;20244;-79
2024/04/15 21:07:02;;;;;;;1.03;1.03;;;10.90;88.70;;;;;;11158587;26;20293;-78
2024/04/15 21:12:07;;;;;;;1.13;1.13;;;10.80;88.50;;;;;;11190510;26;20645;-78
2024/04/15 21:17:14;;;;;;;1.10;1.10;;;10.60;88.70;;;;;;11123409;26;20232;-78
2024/04/15 21:22:18;;;;;;;1.00;1.00;;;10.50;90.00;;;;;;11116850;26;20224;-77
2024/04/15 21:27:22;;;;;;;0.90;0.90;;;10.40;89.00;;;;;;11138020;26;20247;-77
2024/04/15 21:32:28;;;;;;;0.80;0.80;;;10.40;88.70;;;;;;11116477;26;20228;-78
2024/04/15 21:37:32;;;;;;;0.90;0.90;;;10.40;87.50;;;;;;11158418;26;20242;-77
2024/04/15 21:42:36;;;;;;;0.70;0.70;;;10.40;87.10;;;;;;11146783;26;20232;-78
2024/04/15 21:47:43;;;;;;;0.60;0.60;;;10.40;86.00;;;;;;11113275;26;20231;-78
2024/04/15 21:52:47;;;;;;;0.60;0.60;;;10.50;85.20;;;;;;11114071;26;20223;-76
2024/04/15 21:57:51;;;;;;;0.60;0.60;;;10.50;83.60;;;;;;11186544;26;20235;-78
2024/04/15 22:02:57;;;;;;;0.50;0.50;;;10.40;84.90;;;;;;11177124;26;20267;-78
2024/04/15 22:08:02;;;;;;;0.60;0.60;;;10.30;83.80;;;;;;11154016;26;20335;-78
2024/04/15 22:13:06;;;;;;;0.50;0.50;;;10.20;85.50;;;;;;11140723;26;20232;-78
2024/04/15 22:18:13;;;;;;;0.63;0.63;;;10.10;85.30;;;;;;11148858;26;20601;-80
2024/04/15 22:23:16;;;;;;;0.70;0.70;;;10.10;86.20;;;;;;11187614;26;20249;-77
2024/04/15 22:28:20;;;;;;;0.67;0.67;;;9.80;87.30;;;;;;11145047;26;20279;-79
2024/04/15 22:33:27;;;;;;;0.60;0.60;;;9.70;87.30;;;;;;11154613;26;20262;-78
2024/04/15 22:38:32;;;;;;;0.60;0.60;;;9.60;87.40;;;;;;11141063;26;20587;-78
2024/04/15 22:43:37;;;;;;;0.63;0.63;;;9.70;88.50;;;;;;11153465;26;20242;-79
2024/04/15 22:48:44;;;;;;;0.60;0.60;;;9.80;88.20;;;;;;11143234;26;20754;-78
2024/04/15 22:53:48;;;;;;;0.70;0.70;;;9.70;88.20;;;;;;11176048;26;20235;-78
2024/04/15 22:58:52;;;;;;;0.73;0.73;;;9.70;87.70;;;;;;11184185;26;20247;-78
2024/04/15 23:03:58;;;;;;;0.60;0.60;;;9.70;89.20;;;;;;11130091;26;20266;-78
2024/04/15 23:09:02;;;;;;;0.80;0.80;;;9.70;89.20;;;;;;11154005;26;20235;-78
2024/04/15 23:14:06;;;;;;;0.70;0.70;;;9.70;89.80;;;;;;11167759;26;20335;-78
2024/04/15 23:19:13;;;;;;;0.60;0.60;;;9.80;89.40;;;;;;11178353;26;20236;-78
2024/04/15 23:24:17;;;;;;;0.70;0.70;;;9.80;88.70;;;;;;11165469;26;20638;-78
2024/04/15 23:29:21;;;;;;;0.60;0.60;;;9.70;88.50;;;;;;11184174;26;20721;-78
2024/04/15 23:34:28;;;;;;;0.50;0.50;;;9.60;89.80;;;;;;11180574;26;20331;-78
2024/04/15 23:39:32;;;;;;;0.83;0.83;;;9.50;89.90;;;;;;11142738;26;20282;-78
2024/04/15 23:44:36;;;;;;;0.90;0.90;;;9.50;90.10;;;;;;11133019;26;20745;-78
2024/04/15 23:50:00;;;;;;;0.90;0.90;;;9.40;90.10;;;;;;11156617;26;20286;-78
2024/04/15 23:55:23;;;;;;;0.83;0.83;;;9.30;90.10;;;;;;11184393;26;20324;-79
